Time;durP1;ratioP1;P1;durP2;ratioP2;P2;SDS_P1;SDS_P2;PMS_P1;PMS_P2;Temp;Humidity;BMP_temperature;BMP_pressure;BME280_temperature;BME280_humidity;BME280_pressure;Samples;Min_cycle;Max_cycle;Signal;HPM_P1;HPM_P2
2023/07/06 00:00:36;;;;;;;7.00;2.53;;;;;;;11.15;100.00;101496.28;4970695;28;20479;-76
2023/07/06 00:03:03;;;;;;;16.70;3.27;;;;;;;11.60;100.00;101577.66;4972547;28;20926;-77
2023/07/06 00:05:29;;;;;;;6.30;2.90;;;;;;;11.47;100.00;101564.03;4987725;28;20276;-77
2023/07/06 00:07:56;;;;;;;5.40;2.53;;;;;;;11.81;100.00;101587.63;4976038;28;20470;-77
2023/07/06 00:10:22;;;;;;;6.93;2.67;;;;;;;12.93;100.00;101832.13;4974940;28;20456;-78
2023/07/06 00:12:48;;;;;;;7.43;2.97;;;;;;;12.15;100.00;101651.56;4972542;28;20452;-78
2023/07/06 00:15:13;;;;;;;5.13;2.80;;;;;;;10.71;100.00;101474.81;4975327;28;20473;-78
2023/07/06 00:17:38;;;;;;;6.00;3.57;;;;;;;10.60;100.00;101414.41;4983676;28;20218;-77
2023/07/06 00:20:08;;;;;;;5.57;2.77;;;;;;;11.70;100.00;101601.53;4970110;28;20245;-76
2023/07/06 00:22:36;;;;;;;6.23;2.77;;;;;;;10.78;100.00;101422.06;4979205;28;20194;-78
2023/07/06 00:25:01;;;;;;;5.63;2.43;;;;;;;12.42;100.00;101676.06;4973325;28;20436;-77
2023/07/06 00:27:28;;;;;;;6.00;2.70;;;;;;;10.53;100.00;101430.41;4971380;28;21579;-77
2023/07/06 00:30:08;;;;;;;13.23;2.60;;;;;;;11.92;100.00;101621.28;4985849;28;20221;-77
2023/07/06 00:32:33;;;;;;;4.90;2.60;;;;;;;10.75;100.00;101465.38;4972037;28;20512;-78
2023/07/06 00:35:00;;;;;;;5.97;2.90;;;;;;;11.32;100.00;101513.03;4971966;28;20596;-78
2023/07/06 00:37:26;;;;;;;6.07;2.60;;;;;;;11.22;100.00;101542.00;4987068;28;20185;-77
2023/07/06 00:39:52;;;;;;;4.57;2.60;;;;;;;12.17;100.00;101705.13;4972806;28;20519;-76
2023/07/06 00:42:22;;;;;;;8.50;3.27;;;;;;;11.86;100.00;101606.75;4973509;28;21151;-76
2023/07/06 00:44:59;;;;;;;7.13;3.30;;;;;;;12.52;100.00;101706.16;4991500;28;20467;-76
2023/07/06 00:47:42;;;;;;;5.20;2.97;;;;;;;10.52;100.00;101435.94;4976419;28;20984;-78
2023/07/06 00:50:18;;;;;;;3.57;2.80;;;;;;;10.63;100.00;101388.03;4973741;28;20917;-77
2023/07/06 00:52:54;;;;;;;8.23;3.47;;;;;;;10.44;100.00;101403.84;4974130;28;20952;-76
2023/07/06 00:55:25;;;;;;;5.93;3.47;;;;;;;12.10;100.00;101645.91;4972887;28;20476;-76
2023/07/06 00:57:55;;;;;;;5.90;3.00;;;;;;;11.39;100.00;101548.84;4979696;28;20695;-76
2023/07/06 01:00:21;;;;;;;8.07;3.50;;;;;;;13.16;100.00;101820.31;4972382;28;21123;-76
2023/07/06 01:02:52;;;;;;;6.57;3.60;;;;;;;11.88;100.00;101623.50;4988370;28;20445;-76
2023/07/06 01:05:19;;;;;;;6.40;3.83;;;;;;;11.93;100.00;101642.59;4981579;28;20429;-76
2023/07/06 01:07:47;;;;;;;9.33;3.37;;;;;;;13.09;100.00;101833.72;4988815;28;20472;-76
2023/07/06 01:10:13;;;;;;;12.13;3.67;;;;;;;13.00;100.00;101845.66;4973922;28;20908;-76
2023/07/06 01:12:39;;;;;;;11.67;3.57;;;;;;;12.07;100.00;101640.91;4980154;28;20451;-75
2023/07/06 01:15:06;;;;;;;4.83;3.70;;;;;;;11.69;100.00;101645.56;4972745;28;21645;-77
2023/07/06 01:18:02;;;;;;;11.80;3.50;;;;;;;13.08;100.00;101830.22;4976155;28;20658;-76
2023/07/06 01:20:44;;;;;;;6.53;4.03;;;;;;;11.25;100.00;101589.97;4971047;28;20916;-76
2023/07/06 01:23:44;;;;;;;6.10;3.33;;;;;;;11.57;100.00;101607.59;4980743;28;20528;-76
2023/07/06 01:26:42;;;;;;;14.10;4.33;;;;;;;12.89;100.00;101825.44;4972998;28;20448;-76
2023/07/06 01:29:26;;;;;;;7.93;4.13;;;;;;;12.78;100.00;101829.44;4979918;28;20466;-77
2023/07/06 01:31:59;;;;;;;6.40;3.73;;;;;;;11.75;100.00;101655.56;4973246;28;20455;-77
2023/07/06 01:34:43;;;;;;;8.17;4.03;;;;;;;11.66;100.00;101673.66;4981460;28;20469;-76
2023/07/06 01:37:26;;;;;;;8.20;4.70;;;;;;;9.49;100.00;101296.19;4970683;28;20437;-76
2023/07/06 01:39:53;;;;;;;10.20;3.87;;;;;;;10.94;100.00;101534.63;4990065;28;20451;-77
2023/07/06 01:42:25;;;;;;;24.23;5.20;;;;;;;9.17;100.00;101305.31;4974821;28;20445;-76
2023/07/06 01:44:52;;;;;;;10.47;4.90;;;;;;;9.53;100.00;101344.03;4988412;28;20433;-77
2023/07/06 01:47:19;;;;;;;11.73;5.60;;;;;;;10.11;100.00;101420.22;4969290;28;20445;-77
2023/07/06 01:49:46;;;;;;;12.47;5.33;;;;;;;11.22;100.00;101631.44;4973055;28;20441;-77
2023/07/06 01:52:36;;;;;;;8.37;5.50;;;;;;;12.53;100.00;101855.84;4990703;28;20461;-76
2023/07/06 01:55:20;;;;;;;8.73;5.73;;;;;;;12.50;100.00;101825.78;4972158;28;20504;-77
2023/07/06 01:58:07;;;;;;;15.27;6.40;;;;;;;12.55;100.00;101826.88;4984910;28;21001;-76
2023/07/06 02:00:37;;;;;;;10.93;6.70;;;;;;;11.28;100.00;101646.00;4972915;28;20447;-77
2023/07/06 02:03:08;;;;;;;12.50;6.80;;;;;;;11.76;100.00;101716.34;4976020;28;20441;-77
2023/07/06 02:05:37;;;;;;;11.30;6.30;;;;;;;9.37;100.00;101342.28;4971285;28;20442;-76
2023/07/06 02:08:06;;;;;;;12.60;7.20;;;;;;;9.71;100.00;101425.72;4972680;28;20520;-76
2023/07/06 02:10:31;;;;;;;12.23;7.90;;;;;;;9.46;100.00;101341.25;4973567;28;20919;-76
2023/07/06 02:12:57;;;;;;;13.63;6.87;;;;;;;9.23;100.00;101311.78;4972788;28;20452;-77
2023/07/06 02:15:23;;;;;;;12.20;7.63;;;;;;;10.23;100.00;101468.88;4972305;28;20619;-76
2023/07/06 02:17:50;;;;;;;9.77;7.23;;;;;;;9.84;100.00;101429.69;4972841;28;20208;-76
2023/07/06 02:20:19;;;;;;;13.87;6.53;;;;;;;11.61;100.00;101745.09;4971237;28;20444;-76
2023/07/06 02:22:45;;;;;;;12.50;7.80;;;;;;;12.46;100.00;101836.09;4973687;28;20447;-77
2023/07/06 02:25:11;;;;;;;16.20;7.97;;;;;;;12.28;100.00;101820.31;4973952;28;20541;-76
2023/07/06 02:27:37;;;;;;;11.77;8.00;;;;;;;10.51;100.00;101593.38;4990516;28;20512;-77
2023/07/06 02:30:04;;;;;;;18.00;8.90;;;;;;;9.79;100.00;101415.97;4990705;28;20444;-76
2023/07/06 02:32:31;;;;;;;12.40;7.90;;;;;;;11.27;100.00;101684.63;4984664;28;20272;-76
2023/07/06 02:34:56;;;;;;;12.17;8.20;;;;;;;12.49;100.00;101856.41;4974588;28;20477;-76
2023/07/06 02:37:23;;;;;;;14.37;8.33;;;;;;;11.09;100.00;101645.53;4977105;28;20436;-76
2023/07/06 02:39:50;;;;;;;10.80;7.43;;;;;;;12.48;100.00;101854.75;4979846;28;20293;-77
2023/07/06 02:42:16;;;;;;;14.50;7.53;;;;;;;9.71;100.00;101435.59;4989054;28;20437;-76
2023/07/06 02:44:43;;;;;;;12.03;8.23;;;;;;;10.15;100.00;101534.97;4974107;28;20426;-77
2023/07/06 02:47:09;;;;;;;14.60;8.47;;;;;;;9.61;100.00;101403.72;4983903;28;20433;-76
2023/07/06 02:49:35;;;;;;;12.03;8.47;;;;;;;10.39;100.00;101608.22;4977472;28;20495;-77
2023/07/06 02:52:00;;;;;;;12.63;7.00;;;;;;;9.02;100.00;101371.28;4975953;28;20477;-76
2023/07/06 02:54:27;;;;;;;9.73;8.00;;;;;;;9.78;100.00;101498.19;4973133;28;20588;-77
2023/07/06 02:56:53;;;;;;;17.63;8.50;;;;;;;10.22;100.00;101574.47;4975436;28;20234;-77
2023/07/06 02:59:18;;;;;;;8.33;6.90;;;;;;;12.66;100.00;101927.84;4980666;28;20449;-76
2023/07/06 03:01:45;;;;;;;13.90;8.10;;;;;;;9.47;100.00;101402.63;4972118;28;20194;-76
2023/07/06 03:04:11;;;;;;;11.73;6.60;;;;;;;12.65;100.00;101945.03;4984069;28;20187;-77
2023/07/06 03:06:38;;;;;;;12.03;6.93;;;;;;;11.27;100.00;101693.50;4978583;28;20450;-77
2023/07/06 03:09:05;;;;;;;9.20;6.23;;;;;;;10.27;100.00;101532.72;4978500;28;21020;-78
2023/07/06 03:11:31;;;;;;;11.60;6.80;;;;;;;12.43;100.00;101909.09;4975322;28;20488;-75
2023/07/06 03:13:57;;;;;;;13.30;7.40;;;;;;;10.73;100.00;101652.53;4973917;28;20941;-78
2023/07/06 03:16:23;;;;;;;12.43;6.03;;;;;;;11.09;100.00;101683.09;4974836;28;20448;-76
2023/07/06 03:18:48;;;;;;;14.90;7.33;;;;;;;12.06;100.00;101802.41;4973875;28;20268;-77
2023/07/06 03:21:14;;;;;;;11.73;6.63;;;;;;;10.79;100.00;101655.38;4969975;28;20253;-77
2023/07/06 03:23:39;;;;;;;13.73;7.53;;;;;;;9.84;100.00;101469.88;4974407;28;20189;-77
2023/07/06 03:26:06;;;;;;;10.03;7.23;;;;;;;10.89;100.00;101683.78;4971249;28;20191;-76
2023/07/06 03:28:31;;;;;;;11.50;7.53;;;;;;;10.99;100.00;101673.63;4968345;28;20289;-78
2023/07/06 03:30:57;;;;;;;11.70;7.23;;;;;;;10.46;100.00;101611.00;4970224;28;20468;-76
2023/07/06 03:33:26;;;;;;;16.23;6.90;;;;;;;10.85;100.00;101672.59;4972059;28;20269;-75
2023/07/06 03:35:58;;;;;;;12.10;6.90;;;;;;;11.55;100.00;101746.66;4975049;28;20473;-77
2023/07/06 03:38:25;;;;;;;10.00;6.90;;;;;;;10.15;100.00;101509.97;4978620;28;20464;-77
2023/07/06 03:40:51;;;;;;;10.90;7.07;;;;;;;9.74;100.00;101502.22;4977522;28;20453;-77
2023/07/06 03:43:17;;;;;;;11.23;7.13;;;;;;;11.74;100.00;101786.44;4970567;28;20963;-77
2023/07/06 03:45:46;;;;;;;10.67;6.80;;;;;;;11.76;100.00;101780.88;4968651;28;20191;-76
2023/07/06 03:48:12;;;;;;;9.80;6.60;;;;;;;10.04;100.00;101491.63;4969070;28;20468;-78
2023/07/06 03:50:38;;;;;;;9.90;6.67;;;;;;;9.85;100.00;101456.28;4969967;28;21126;-77
2023/07/06 03:53:04;;;;;;;9.13;6.60;;;;;;;9.71;100.00;101435.59;4968607;28;20457;-77
2023/07/06 03:55:30;;;;;;;13.07;6.93;;;;;;;10.64;100.00;101598.13;4970566;28;20213;-77
2023/07/06 03:58:00;;;;;;;10.07;6.13;;;;;;;11.09;100.00;101736.81;4971755;28;20536;-77
2023/07/06 04:00:28;;;;;;;11.93;7.57;;;;;;;12.94;100.00;101999.91;4985212;28;20286;-77
2023/07/06 04:02:55;;;;;;;10.03;6.83;;;;;;;12.86;100.00;101955.06;4973117;28;20445;-77
2023/07/06 04:05:31;;;;;;;17.23;7.40;;;;;;;10.16;100.00;101525.06;4971494;28;20529;-77
2023/07/06 04:07:57;;;;;;;10.97;7.57;;;;;;;10.78;100.00;101644.78;4979607;28;20465;-77
2023/07/06 04:10:23;;;;;;;17.00;7.77;;;;;;;10.28;100.00;101571.91;4970562;28;20442;-78
2023/07/06 04:12:49;;;;;;;11.03;6.60;;;;;;;11.73;100.00;101797.34;4970029;28;20468;-76
2023/07/06 04:15:20;;;;;;;9.53;7.40;;;;;;;9.64;100.00;101480.22;4985460;28;20312;-77
2023/07/06 04:17:47;;;;;;;15.30;7.37;;;;;;;10.19;100.00;101549.66;4974694;28;20539;-76
2023/07/06 04:20:34;;;;;;;9.73;5.90;;;;;;;10.19;100.00;101562.25;4979691;28;20500;-77
2023/07/06 04:23:00;;;;;;;10.40;7.10;;;;;;;9.93;100.00;101530.44;4975213;28;20448;-77
2023/07/06 04:25:31;;;;;;;10.83;7.10;;;;;;;12.77;100.00;102004.63;4976664;28;20452;-77
2023/07/06 04:27:58;;;;;;;9.37;6.70;;;;;;;10.23;100.00;101585.00;4976670;28;20461;-77
2023/07/06 04:30:25;;;;;;;9.60;6.23;;;;;;;9.54;100.00;101472.38;4975379;28;20429;-77
2023/07/06 04:32:51;;;;;;;13.40;6.70;;;;;;;11.15;100.00;101707.56;4976363;28;20428;-78
2023/07/06 04:35:21;;;;;;;10.03;6.53;;;;;;;10.45;100.00;101684.44;4983021;28;20470;-76
2023/07/06 04:37:48;;;;;;;11.90;6.80;;;;;;;12.98;100.00;102073.91;4983257;28;20462;-78
2023/07/06 04:40:18;;;;;;;9.47;5.70;;;;;;;11.75;100.00;101801.53;4993653;28;20456;-77
2023/07/06 04:42:47;;;;;;;12.20;7.30;;;;;;;13.01;100.00;102039.34;4975761;28;20448;-77
2023/07/06 04:45:14;;;;;;;10.63;6.33;;;;;;;10.07;100.00;101537.69;4973291;28;20433;-77
2023/07/06 04:47:40;;;;;;;10.50;6.43;;;;;;;10.53;100.00;101611.94;4974816;28;20844;-77
2023/07/06 04:50:12;;;;;;;8.10;5.90;;;;;;;10.43;100.00;101649.75;4975360;28;20884;-78
2023/07/06 04:52:38;;;;;;;11.93;6.13;;;;;;;10.56;100.00;101617.81;4986607;28;20442;-77
2023/07/06 04:55:10;;;;;;;16.53;6.10;;;;;;;10.94;100.00;101659.94;4973335;28;20476;-75
2023/07/06 04:57:36;;;;;;;7.43;5.70;;;;;;;11.21;100.00;101704.16;4988413;28;20218;-78
2023/07/06 05:00:12;;;;;;;8.53;5.43;;;;;;;10.60;100.00;101560.09;4974098;28;20467;-78
2023/07/06 05:02:38;;;;;;;11.23;5.80;;;;;;;11.22;100.00;101722.75;4983752;28;20444;-77
2023/07/06 05:05:04;;;;;;;9.10;6.03;;;;;;;11.93;100.00;101811.97;4977474;28;20445;-78
2023/07/06 05:07:30;;;;;;;9.23;6.27;;;;;;;10.62;100.00;101601.00;4977063;28;20185;-78
2023/07/06 05:09:56;;;;;;;15.50;6.37;;;;;;;12.42;100.00;101857.16;4979949;28;20543;-78
2023/07/06 05:12:21;;;;;;;8.93;5.83;;;;;;;11.91;100.00;101840.06;4975224;28;20523;-78
2023/07/06 05:14:47;;;;;;;11.80;6.90;;;;;;;11.75;100.00;101693.19;4988786;28;21047;-78
2023/07/06 05:17:13;;;;;;;12.83;7.07;;;;;;;10.62;100.00;101536.59;4974667;28;20182;-77
2023/07/06 05:19:38;;;;;;;14.23;7.00;;;;;;;12.00;100.00;101771.72;4975071;28;20207;-78
2023/07/06 05:22:04;;;;;;;13.43;6.80;;;;;;;13.08;100.00;101993.69;4972979;28;21223;-77
2023/07/06 05:24:30;;;;;;;12.13;6.40;;;;;;;12.10;100.00;101768.78;4989464;28;20216;-76
2023/07/06 05:26:55;;;;;;;15.30;5.90;;;;;;;10.91;100.00;101604.78;4977201;28;20438;-75
2023/07/06 05:29:21;;;;;;;10.33;6.97;;;;;;;12.56;100.00;101825.06;4978279;28;20661;-75
2023/07/06 05:31:48;;;;;;;13.17;6.13;;;;;;;11.20;100.00;101662.22;4980966;28;20615;-76
2023/07/06 05:34:14;;;;;;;10.73;6.63;;;;;;;12.29;100.00;101831.91;4973820;28;20206;-76
2023/07/06 05:36:39;;;;;;;11.60;6.33;;;;;;;11.83;100.00;101655.47;4972364;28;20496;-76
2023/07/06 05:39:06;;;;;;;13.93;6.30;;;;;;;13.08;100.00;101900.25;4980659;28;20471;-76
2023/07/06 05:41:32;;;;;;;12.37;6.50;;;;;;;11.60;100.00;101712.00;4973404;28;20189;-76
2023/07/06 05:43:57;;;;;;;13.70;6.80;;;;;;;12.27;100.00;101847.44;4977682;28;20820;-77
2023/07/06 05:46:24;;;;;;;10.00;7.00;;;;;;;11.53;100.00;101655.47;4973469;28;20663;-76
2023/07/06 05:48:51;;;;;;;13.07;7.87;;;;;;;11.01;100.00;101556.19;4991521;28;20292;-76
2023/07/06 05:51:16;;;;;;;13.90;7.90;;;;;;;12.47;100.00;101844.97;4975825;28;20445;-77
2023/07/06 05:53:42;;;;;;;13.10;7.27;;;;;;;12.64;100.00;101857.22;4976598;28;20504;-76
2023/07/06 05:56:07;;;;;;;12.30;6.67;;;;;;;11.40;100.00;101611.47;4975429;28;20264;-77
2023/07/06 05:58:34;;;;;;;10.57;7.40;;;;;;;11.94;100.00;101726.75;4975066;28;20712;-76
2023/07/06 06:01:00;;;;;;;12.50;8.10;;;;;;;11.28;100.00;101577.03;4974908;28;20192;-76
2023/07/06 06:03:25;;;;;;;12.87;7.57;;;;;;;13.02;100.00;101921.72;4975986;28;20493;-77
2023/07/06 06:05:52;;;;;;;11.70;7.73;;;;;;;11.46;100.00;101626.88;4974073;28;20575;-76
2023/07/06 06:08:18;;;;;;;15.63;8.53;;;;;;;11.48;100.00;101668.63;4973156;28;20210;-75
2023/07/06 06:10:44;;;;;;;8.73;6.80;;;;;;;12.02;100.00;101699.78;4976042;28;20436;-76
2023/07/06 06:13:10;;;;;;;12.03;7.70;;;;;;;12.57;100.00;101843.69;4989692;28;20821;-76
2023/07/06 06:15:36;;;;;;;14.77;8.13;;;;;;;11.58;100.00;101689.03;4989693;28;20479;-76
2023/07/06 06:18:03;;;;;;;11.03;7.20;;;;;;;13.22;100.00;101885.06;4971883;28;20461;-77
2023/07/06 06:20:30;;;;;;;15.93;8.13;;;;;;;12.49;100.00;101814.19;4988703;28;20601;-76
2023/07/06 06:22:56;;;;;;;13.30;8.23;;;;;;;12.72;100.00;101823.97;4981736;28;20479;-77
2023/07/06 06:25:21;;;;;;;12.93;8.20;;;;;;;14.41;100.00;102039.13;4976149;28;20556;-77
2023/07/06 06:27:47;;;;;;;12.00;7.23;;;;;;;11.71;100.00;101652.41;4971983;28;20770;-76
2023/07/06 06:30:14;;;;;;;15.53;8.77;;;;;;;13.77;100.00;102004.06;4973981;28;20186;-77
2023/07/06 06:32:41;;;;;;;13.27;6.93;;;;;;;11.84;100.00;101614.13;4976650;28;20252;-78
2023/07/06 06:35:36;;;;;;;11.57;7.33;;;;;;;14.64;100.00;102065.09;4976381;28;20461;-76
2023/07/06 06:38:03;;;;;;;13.40;7.63;;;;;;;11.66;100.00;101598.41;4962330;28;20576;-79
2023/07/06 06:40:29;;;;;;;16.03;7.87;;;;;;;14.74;100.00;102062.03;4974851;28;20791;-76
2023/07/06 06:42:55;;;;;;;15.37;9.10;;;;;;;11.83;100.00;101714.63;4972508;28;20528;-77
2023/07/06 06:45:21;;;;;;;14.20;7.90;;;;;;;11.52;100.00;101601.94;4976098;28;20527;-77
2023/07/06 06:47:47;;;;;;;12.03;7.93;;;;;;;14.55;100.00;102055.44;4983929;28;20754;-76
2023/07/06 06:50:17;;;;;;;16.90;7.80;;;;;;;11.91;100.00;101654.56;4977157;28;20426;-76
2023/07/06 06:52:44;;;;;;;15.57;7.27;;;;;;;14.72;100.00;102132.44;4979548;28;20437;-76
2023/07/06 06:55:10;;;;;;;19.27;9.03;;;;;;;13.06;100.00;101789.16;4978251;28;20509;-77
2023/07/06 06:57:36;;;;;;;16.87;8.67;;;;;;;14.90;100.00;102131.97;4978160;28;20484;-77
2023/07/06 07:00:06;;;;;;;15.60;7.90;;;;;;;11.97;100.00;101570.44;4989536;28;20276;-77
2023/07/06 07:02:32;;;;;;;22.43;8.77;;;;;;;13.06;100.00;101772.16;4974039;28;20421;-75
2023/07/06 07:04:59;;;;;;;16.73;8.30;;;;;;;14.28;100.00;101962.59;4972329;28;20436;-75
2023/07/06 07:07:25;;;;;;;18.30;8.70;;;;;;;13.90;100.00;101925.97;4971434;28;20437;-76
2023/07/06 07:09:52;;;;;;;18.93;8.57;;;;;;;14.17;100.00;101904.59;4970798;28;20528;-78
2023/07/06 07:12:18;;;;;;;23.10;8.43;;;;;;;13.57;100.00;101839.41;4973746;28;20940;-76
2023/07/06 07:14:44;;;;;;;17.60;7.87;;;;;;;14.33;100.00;101954.75;4969941;28;21527;-76
2023/07/06 07:17:10;;;;;;;17.93;8.10;;;;;;;12.83;100.00;101687.03;4976080;28;20460;-76
2023/07/06 07:19:36;;;;;;;16.87;8.63;;;;;;;13.98;100.00;101849.47;4985733;28;20497;-75
2023/07/06 07:22:02;;;;;;;19.43;9.50;;;;;;;13.16;100.00;101742.19;4987197;28;20488;-76
2023/07/06 07:24:32;;;;;;;21.07;8.80;;;;;;;14.14;100.00;101900.41;4973563;28;20177;-76
2023/07/06 07:26:58;;;;;;;16.47;8.90;;;;;;;13.85;100.00;101819.72;4981218;28;20453;-76
2023/07/06 07:29:24;;;;;;;17.73;10.00;;;;;;;13.54;100.00;101780.50;4974000;28;20496;-76
2023/07/06 07:31:50;;;;;;;10.87;8.43;;;;;;;14.13;100.00;101908.72;4988878;28;20814;-76
2023/07/06 07:34:17;;;;;;;16.53;8.60;;;;;;;13.15;100.00;101692.88;4976686;28;20445;-75
2023/07/06 07:36:43;;;;;;;12.90;8.80;;;;;;;14.53;100.00;101919.84;4976419;28;20445;-75
2023/07/06 07:39:12;;;;;;;19.13;8.90;;;;;;;15.81;100.00;102181.44;4981043;28;20470;-77
2023/07/06 07:41:40;;;;;;;14.67;8.03;;;;;;;14.65;100.00;101894.75;4976312;28;20460;-78
2023/07/06 07:44:06;;;;;;;12.00;6.63;;;;;;;13.75;100.00;101766.97;4975758;28;20471;-76
2023/07/06 07:46:31;;;;;;;11.80;6.13;;;;;;;13.96;100.00;101803.81;4974413;28;20445;-76
2023/07/06 07:48:57;;;;;;;15.30;7.30;;;;;;;14.58;100.00;101847.16;4989703;28;20486;-76
2023/07/06 07:51:26;;;;;;;10.13;6.83;;;;;;;14.02;100.00;101732.06;4975384;28;20669;-75
2023/07/06 07:53:54;;;;;;;14.00;6.57;;;;;;;15.30;100.00;101957.38;4990352;28;20671;-75
2023/07/06 07:56:21;;;;;;;16.67;6.80;;;;;;;13.31;100.00;101711.50;4984248;28;20477;-75
2023/07/06 07:58:48;;;;;;;11.53;6.50;;;;;;;15.88;100.00;102157.13;4976298;28;20457;-75
2023/07/06 08:01:16;;;;;;;13.93;6.67;;;;;;;13.68;100.00;101754.47;4977092;28;20445;-75
2023/07/06 08:03:42;;;;;;;12.93;6.20;;;;;;;13.08;100.00;101679.38;4974229;28;20657;-75
2023/07/06 08:06:10;;;;;;;9.73;5.20;;;;;;;13.79;100.00;101717.00;4978780;28;20437;-78
2023/07/06 08:08:37;;;;;;;8.60;6.13;;;;;;;15.36;100.00;101974.63;4976938;28;20461;-76
2023/07/06 08:11:10;;;;;;;14.13;5.10;;;;;;;13.63;100.00;101697.63;4975087;28;20437;-75
2023/07/06 08:13:36;;;;;;;11.30;4.83;;;;;;;14.98;100.00;101885.13;4976766;28;20445;-76
2023/07/06 08:16:03;;;;;;;8.20;4.57;;;;;;;14.74;100.00;101916.19;4975547;28;20486;-75
2023/07/06 08:18:30;;;;;;;9.93;5.00;;;;;;;16.43;100.00;102239.16;4984475;28;21232;-75
2023/07/06 08:20:57;;;;;;;9.37;4.67;;;;;;;13.82;100.00;101741.91;4985081;28;20440;-75
2023/07/06 08:23:24;;;;;;;9.63;4.20;;;;;;;14.18;100.00;101809.16;4991244;28;20441;-75
2023/07/06 08:25:51;;;;;;;14.90;5.20;;;;;;;16.81;100.00;102202.59;4976518;28;20436;-76
2023/07/06 08:28:21;;;;;;;10.20;4.70;;;;;;;15.65;100.00;102080.81;4984662;28;20519;-75
2023/07/06 08:30:54;;;;;;;10.63;4.43;;;;;;;14.89;100.00;101990.66;4993622;28;20790;-75
2023/07/06 08:33:21;;;;;;;5.50;3.60;;;;;;;14.40;100.00;101897.06;4979309;28;20428;-76
2023/07/06 08:35:49;;;;;;;14.30;3.57;;;;;;;14.41;100.00;101920.34;4976654;28;20483;-75
2023/07/06 08:38:14;;;;;;;11.87;2.80;;;;;;;17.36;100.00;102361.34;4976849;28;20467;-76
2023/07/06 08:40:42;;;;;;;9.13;2.90;;;;;;;14.82;100.00;102045.69;4977079;28;20452;-75
2023/07/06 08:43:19;;;;;;;6.13;3.03;;;;;;;15.68;100.00;102177.81;4978951;28;20193;-75
2023/07/06 08:45:52;;;;;;;6.47;2.80;;;;;;;15.09;100.00;102074.53;4984182;28;20487;-77
2023/07/06 08:48:20;;;;;;;4.73;2.33;;;;;;;16.27;100.00;102213.25;4988183;28;20469;-75
2023/07/06 08:50:51;;;;;;;9.13;2.90;;;;;;;16.32;100.00;102298.47;4983706;28;20552;-75
2023/07/06 08:53:20;;;;;;;6.20;2.20;;;;;;;14.87;100.00;102040.53;4977168;28;20846;-75
2023/07/06 08:55:49;;;;;;;7.97;2.80;;;;;;;14.27;100.00;101940.19;4981258;28;20496;-75
2023/07/06 08:58:23;;;;;;;6.33;2.57;;;;;;;15.18;100.00;102134.66;4989038;28;20468;-75
2023/07/06 09:00:49;;;;;;;4.53;2.20;;;;;;;16.08;100.00;102272.72;4978245;28;20440;-76
2023/07/06 09:03:16;;;;;;;4.73;1.90;;;;;;;14.61;100.00;102065.44;4989314;28;20965;-75
2023/07/06 09:05:46;;;;;;;4.00;2.00;;;;;;;15.05;100.00;102134.56;4973876;28;20444;-76
2023/07/06 09:08:15;;;;;;;6.80;2.50;;;;;;;17.04;100.00;102432.56;4980247;28;20469;-76
2023/07/06 09:10:41;;;;;;;5.90;1.97;;;;;;;16.16;100.00;102229.25;4985542;28;20531;-76
2023/07/06 09:13:23;;;;;;;6.13;1.60;;;;;;;16.90;100.00;102442.56;4976056;28;20930;-75
2023/07/06 09:15:56;;;;;;;6.20;1.90;;;;;;;17.87;100.00;102568.91;4976596;28;20491;-76
2023/07/06 09:18:22;;;;;;;5.80;1.97;;;;;;;14.66;100.00;102031.44;4980449;28;20492;-76
2023/07/06 09:20:49;;;;;;;6.43;2.10;;;;;;;17.63;100.00;102559.44;4980961;28;20446;-76
2023/07/06 09:23:15;;;;;;;3.50;1.63;;;;;;;16.42;100.00;102372.03;4974569;28;20960;-76
2023/07/06 09:25:43;;;;;;;5.10;1.77;;;;;;;14.52;100.00;102056.66;4981595;28;20449;-78
2023/07/06 09:28:23;;;;;;;3.07;1.43;;;;;;;14.71;100.00;102092.97;4989317;28;20495;-77
2023/07/06 09:31:04;;;;;;;3.80;1.77;;;;;;;16.89;100.00;102470.66;4975749;28;20568;-77
2023/07/06 09:33:30;;;;;;;5.03;1.90;;;;;;;16.10;100.00;102319.38;4976777;28;20444;-76
2023/07/06 09:35:57;;;;;;;4.80;1.60;;;;;;;16.08;100.00;102346.66;4979590;28;21206;-76
2023/07/06 09:38:25;;;;;;;3.80;1.87;;;;;;;15.47;100.00;102251.72;4975718;28;20515;-76
2023/07/06 09:40:52;;;;;;;5.83;2.20;;;;;;;16.10;100.00;102362.69;4972114;28;20600;-76
2023/07/06 09:43:29;;;;;;;4.70;1.57;;;;;;;16.32;100.00;102344.50;4983352;28;20448;-76
2023/07/06 09:45:59;;;;;;;3.30;1.70;;;;;;;15.01;100.00;102153.03;4990494;28;21126;-76
2023/07/06 09:48:32;;;;;;;5.17;1.50;;;;;;;15.58;100.00;102221.44;4980634;28;20596;-76
2023/07/06 09:51:06;;;;;;;9.83;1.77;;;;;;;16.47;100.00;102383.13;4971293;28;20448;-76
2023/07/06 09:53:41;;;;;;;4.47;1.80;;;;;;;15.12;100.00;102197.59;4980448;28;20822;-76
2023/07/06 09:56:14;;;;;;;4.97;1.67;;;;;;;16.62;100.00;102381.09;4973331;28;20531;-76
2023/07/06 09:58:41;;;;;;;4.67;1.70;;;;;;;16.00;100.00;102293.53;4972067;28;20464;-74
2023/07/06 10:01:32;;;;;;;4.60;1.50;;;;;;;16.28;100.00;102352.19;4986843;28;21050;-74
2023/07/06 10:04:24;;;;;;;4.60;1.50;;;;;;;17.72;100.00;102587.22;4978063;28;20441;-73
2023/07/06 10:07:05;;;;;;;7.53;1.80;;;;;;;17.00;100.00;102501.81;4971397;28;20494;-74
2023/07/06 10:09:39;;;;;;;6.50;1.50;;;;;;;15.04;100.00;102190.50;4968778;28;20470;-74
2023/07/06 10:12:31;;;;;;;3.90;1.80;;;;;;;15.73;100.00;102345.78;4973733;28;20448;-74
2023/07/06 10:15:00;;;;;;;10.20;2.40;;;;;;;14.51;100.00;102094.63;4972359;28;20976;-74
2023/07/06 10:17:41;;;;;;;4.33;1.70;;;;;;;17.44;100.00;102562.91;4978820;28;20444;-74
2023/07/06 10:20:09;;;;;;;4.83;1.53;;;;;;;17.37;100.00;102555.56;4989407;28;20826;-73
2023/07/06 10:22:54;;;;;;;4.10;1.63;;;;;;;17.42;100.00;102554.97;4973273;28;20449;-74
2023/07/06 10:25:28;;;;;;;4.20;1.27;;;;;;;14.30;100.00;102079.28;4973154;28;20440;-74
2023/07/06 10:28:03;;;;;;;3.30;1.60;;;;;;;14.83;100.00;102158.91;4973545;28;20970;-74
2023/07/06 10:30:34;;;;;;;4.33;1.67;;;;;;;15.66;100.00;102313.25;4972301;28;20481;-73
2023/07/06 10:33:06;;;;;;;6.50;1.60;;;;;;;15.06;100.00;102164.09;4971403;28;20499;-73
2023/07/06 10:35:38;;;;;;;18.13;2.87;;;;;;;15.72;100.00;102277.31;4975555;28;20819;-73
2023/07/06 10:38:06;;;;;;;5.10;1.70;;;;;;;14.66;100.00;102055.72;4971632;28;20497;-73
2023/07/06 10:40:32;;;;;;;7.90;2.20;;;;;;;14.86;100.00;102052.34;4987948;28;20453;-73
2023/07/06 10:43:08;;;;;;;5.90;1.90;;;;;;;17.22;100.00;102381.34;4970966;28;20451;-73
2023/07/06 10:45:35;;;;;;;3.20;1.70;;;;;;;18.39;100.00;102520.28;4974098;28;20433;-74
2023/07/06 10:48:13;;;;;;;6.73;1.87;;;;;;;18.33;100.00;102559.97;4987436;28;20461;-73
2023/07/06 10:50:44;;;;;;;5.17;1.77;;;;;;;17.78;100.00;102419.00;4972474;28;20437;-73
2023/07/06 10:53:36;;;;;;;6.57;2.37;;;;;;;18.61;100.00;102561.66;4971532;28;20445;-74
2023/07/06 10:56:02;;;;;;;4.37;1.57;;;;;;;18.91;100.00;102576.47;4970008;28;20848;-74
2023/07/06 10:58:36;;;;;;;4.80;1.80;;;;;;;17.65;100.00;102407.25;4973770;28;20458;-73
2023/07/06 11:01:09;;;;;;;4.67;2.00;;;;;;;18.64;100.00;102594.69;4972747;28;20220;-73
2023/07/06 11:03:36;;;;;;;5.87;1.80;;;;;;;18.00;100.00;102451.38;4980270;28;20451;-73
2023/07/06 11:06:25;;;;;;;6.00;2.00;;;;;;;18.66;100.00;102594.44;4973325;28;20527;-73
2023/07/06 11:09:07;;;;;;;3.73;1.50;;;;;;;18.48;100.00;102573.34;4958849;28;20997;-73
2023/07/06 11:11:54;;;;;;;4.63;1.60;;;;;;;17.99;100.00;102520.25;4971545;28;20785;-74
2023/07/06 11:14:33;;;;;;;5.80;1.83;;;;;;;17.81;100.00;102247.59;4978278;28;20980;-75
2023/07/06 11:17:18;;;;;;;3.53;1.30;;;;;;;18.08;100.00;101796.84;4970188;28;20527;-74
2023/07/06 11:19:59;;;;;;;5.23;1.90;;;;;;;18.15;100.00;101633.84;4971101;28;20954;-74
2023/07/06 11:22:25;;;;;;;5.53;1.67;;;;;;;18.02;100.00;101648.41;4989275;28;20429;-75
2023/07/06 11:24:59;;;;;;;3.03;1.37;;;;;;;17.85;100.00;101599.38;4972240;28;20921;-75